Bargerville, Illinois
Current Conditions -  °F | °C
As of 8:35 PM on Saturday 25 Oct 2014 (Local Time) from KM30 Reporting Station
Haze Haze  
Wind Chill: 61°   Ceiling: Unl
Heat Index: 61°   Visibility: 2.5mi
Dew Point: 61°   Wind: 0mph
Humidity: 100%   Direction: NA
Pressure: 30"   Gusts: NA
Location:  37.2288°N, 88.7044°W
Report Text: KM30 260135Z AUTO 00000KT 2 1/2SM BR CLR 16/16 A3000 RMK AO2 T01600160
Loading
Personal Weather Stations






























Interactive Weather Map New forecast layout! Learn more

10-Day Weather Forecast

Advertisements
Track Severe Weather on mobile